Time;durP1;ratioP1;P1;durP2;ratioP2;P2;SDS_P1;SDS_P2;PMS_P1;PMS_P2;Temp;Humidity;BMP_temperature;BMP_pressure;BME280_temperature;BME280_humidity;BME280_pressure;Samples;Min_cycle;Max_cycle;Signal;HPM_P1;HPM_P2
2022/11/16 00:01:16;;;;;;;;;;;19.40;83.90;;;;;;5071378;28;20302;-72
2022/11/16 00:03:43;;;;;;;;;;;19.30;85.80;;;;;;5071323;28;19908;-72
2022/11/16 00:06:11;;;;;;;;;;;19.40;84.70;;;;;;5070489;28;19995;-71
2022/11/16 00:08:40;;;;;;;;;;;19.40;84.50;;;;;;5072522;28;20400;-71
2022/11/16 00:11:11;;;;;;;;;;;19.60;85.20;;;;;;5072859;28;19966;-70
2022/11/16 00:13:38;;;;;;;;;;;19.80;84.90;;;;;;5073264;28;20259;-68
2022/11/16 00:16:05;;;;;;;;;;;20.00;84.60;;;;;;5073138;28;19920;-67
2022/11/16 00:18:32;;;;;;;;;;;20.10;85.10;;;;;;5073243;28;19909;-65
2022/11/16 00:20:59;;;;;;;;;;;20.20;84.70;;;;;;5075957;28;20244;-61
2022/11/16 00:23:25;;;;;;;;;;;20.10;84.60;;;;;;5075541;28;19919;-64
2022/11/16 00:25:52;;;;;;;;;;;19.90;82.40;;;;;;5077221;28;19908;-64
2022/11/16 00:28:19;;;;;;;;;;;19.70;84.70;;;;;;5077096;28;19916;-64
2022/11/16 00:30:45;;;;;;;;;;;19.70;85.40;;;;;;5075906;28;19967;-64
2022/11/16 00:33:16;;;;;;;;;;;19.80;83.40;;;;;;5076270;28;19966;-61
2022/11/16 00:35:43;;;;;;;;;;;19.80;83.30;;;;;;5077005;28;20450;-63
2022/11/16 00:38:10;;;;;;;;;;;19.90;83.60;;;;;;5076924;28;19958;-69
2022/11/16 00:40:37;;;;;;;;;;;20.00;82.40;;;;;;5076701;28;19915;-65
2022/11/16 00:43:03;;;;;;;;;;;20.10;81.70;;;;;;5076491;28;19998;-62
2022/11/16 00:45:30;;;;;;;;;;;20.00;83.90;;;;;;5075997;28;19909;-63
2022/11/16 00:47:57;;;;;;;;;;;19.70;85.40;;;;;;5076000;28;19913;-64
2022/11/16 00:50:23;;;;;;;;;;;19.60;82.20;;;;;;5076467;28;19959;-66
2022/11/16 00:52:50;;;;;;;;;;;19.40;83.50;;;;;;5076306;28;20012;-65
2022/11/16 00:55:17;;;;;;;;;;;19.30;81.20;;;;;;5076454;28;20420;-61
2022/11/16 00:57:44;;;;;;;;;;;19.60;83.40;;;;;;5076453;28;19913;-64
2022/11/16 01:00:11;;;;;;;;;;;20.50;80.30;;;;;;5075492;28;19908;-65
2022/11/16 01:02:39;;;;;;;;;;;20.40;78.00;;;;;;5076317;28;20003;-72
2022/11/16 01:05:07;;;;;;;;;;;20.30;81.40;;;;;;5075420;28;19912;-71
2022/11/16 01:07:34;;;;;;;;;;;20.40;83.50;;;;;;5076288;28;19908;-72
2022/11/16 01:10:03;;;;;;;;;;;20.40;83.40;;;;;;5076222;28;20374;-72
2022/11/16 01:12:29;;;;;;;;;;;20.30;81.50;;;;;;5076145;28;20016;-70
2022/11/16 01:14:56;;;;;;;;;;;20.00;81.60;;;;;;5074732;28;19908;-72
2022/11/16 01:17:23;;;;;;;;;;;19.50;81.00;;;;;;5075617;28;19979;-72
2022/11/16 01:19:49;;;;;;;;;;;19.30;81.90;;;;;;5075939;28;19908;-64
2022/11/16 01:22:16;;;;;;;;;;;19.10;80.70;;;;;;5076168;28;19997;-66
2022/11/16 01:24:45;;;;;;;;;;;19.10;79.30;;;;;;5076016;28;20286;-67
2022/11/16 01:27:12;;;;;;;;;;;19.30;82.50;;;;;;5076072;28;19916;-65
2022/11/16 01:29:38;;;;;;;;;;;19.70;79.40;;;;;;5075196;28;19908;-65
2022/11/16 01:32:05;;;;;;;;;;;19.90;78.60;;;;;;5074865;28;19940;-67
2022/11/16 01:34:32;;;;;;;;;;;20.20;79.50;;;;;;5075798;28;19908;-62
2022/11/16 01:36:58;;;;;;;;;;;20.20;78.60;;;;;;5075737;28;20426;-61
2022/11/16 01:39:25;;;;;;;;;;;19.80;77.70;;;;;;5075926;28;19912;-62
2022/11/16 01:41:52;;;;;;;;;;;19.50;76.40;;;;;;5075805;28;20370;-64
2022/11/16 01:44:30;;;;;;;;;;;19.50;77.20;;;;;;5074879;28;20345;-66
2022/11/16 01:47:02;;;;;;;;;;;19.30;77.90;;;;;;5075563;28;19913;-67
2022/11/16 01:49:32;;;;;;;;;;;19.40;75.20;;;;;;5075463;28;19908;-68
2022/11/16 01:52:05;;;;;;;;;;;19.60;78.40;;;;;;5075555;28;19921;-66
2022/11/16 01:54:33;;;;;;;;;;;19.60;73.90;;;;;;5055179;28;19963;-66
2022/11/16 01:57:01;;;;;;;;;;;19.60;77.80;;;;;;5070665;28;19921;-61
2022/11/16 01:59:28;;;;;;;;;;;19.60;76.80;;;;;;5065647;28;20250;-67
2022/11/16 02:01:55;;;;;;;;;;;19.90;77.50;;;;;;5070096;28;20389;-67
2022/11/16 02:04:22;;;;;;;;;;;19.90;76.70;;;;;;5073582;28;19916;-71
2022/11/16 02:06:59;;;;;;;;;;;19.90;75.20;;;;;;5074771;28;20003;-71
2022/11/16 02:12:38;;;;;;;;;;;20.00;76.30;;;;;;5075264;28;19958;-71
2022/11/16 02:15:10;;;;;;;;;;;20.00;75.30;;;;;;5074076;28;19928;-69
2022/11/16 02:17:55;;;;;;;;;;;20.30;73.50;;;;;;5075158;28;19999;-70
2022/11/16 02:20:51;;;;;;;;;;;20.10;72.30;;;;;;5075060;28;19909;-69
2022/11/16 02:23:27;;;;;;;;;;;20.10;73.50;;;;;;5054865;28;19959;-63
2022/11/16 02:26:13;;;;;;;;;;;20.10;72.10;;;;;;5072493;28;19939;-63
2022/11/16 02:28:46;;;;;;;;;;;20.10;72.00;;;;;;5054671;28;19912;-64
2022/11/16 02:31:16;;;;;;;;;;;20.00;74.00;;;;;;5073197;28;19920;-63
2022/11/16 02:33:43;;;;;;;;;;;19.80;74.80;;;;;;5072671;28;19916;-63
2022/11/16 02:36:12;;;;;;;;;;;19.70;75.10;;;;;;5072736;28;19961;-63
2022/11/16 02:38:40;;;;;;;;;;;19.80;76.10;;;;;;5072721;28;19918;-65
2022/11/16 02:41:19;;;;;;;;;;;19.60;73.50;;;;;;5072304;28;19915;-68
2022/11/16 02:43:48;;;;;;;;;;;19.30;74.60;;;;;;5071553;28;19996;-64
2022/11/16 02:46:35;;;;;;;;;;;19.40;77.30;;;;;;5072224;28;19912;-61
2022/11/16 02:49:03;;;;;;;;;;;19.10;73.90;;;;;;5073667;28;19909;-62
2022/11/16 02:51:30;;;;;;;;;;;19.10;75.20;;;;;;5074249;28;19971;-65
2022/11/16 02:54:11;;;;;;;;;;;19.20;78.30;;;;;;5074274;28;19913;-62
2022/11/16 02:56:53;;;;;;;;;;;19.20;80.40;;;;;;5073952;28;19966;-66
2022/11/16 02:59:20;;;;;;;;;;;19.10;79.50;;;;;;5072594;28;19919;-70
2022/11/16 03:01:53;;;;;;;;;;;19.00;92.50;;;;;;5074131;28;19916;-67
2022/11/16 03:04:24;;;;;;;;;;;18.60;95.00;;;;;;5073954;28;20331;-63
2022/11/16 03:06:53;;;;;;;;;;;18.40;95.60;;;;;;5073844;28;20015;-62
2022/11/16 03:09:23;;;;;;;;;;;18.20;96.00;;;;;;5074216;28;19915;-66
2022/11/16 03:12:00;;;;;;;;;;;17.90;96.20;;;;;;5073963;28;20027;-68
2022/11/16 03:14:35;;;;;;;;;;;17.70;96.70;;;;;;5054186;28;19913;-67
2022/11/16 03:17:03;;;;;;;;;;;17.60;96.90;;;;;;5053681;28;19948;-67
2022/11/16 03:19:33;;;;;;;;;;;17.00;95.40;;;;;;5053744;28;19991;-65
2022/11/16 03:22:19;;;;;;;;;;;16.80;94.60;;;;;;5053762;28;20375;-65
2022/11/16 03:24:46;;;;;;;;;;;16.30;93.50;;;;;;5053110;28;19944;-63
2022/11/16 03:27:31;;;;;;;;;;;16.30;94.60;;;;;;5057675;28;19948;-63
2022/11/16 03:29:58;;;;;;;;;;;16.40;95.40;;;;;;5073794;28;19912;-62
2022/11/16 03:32:29;;;;;;;;;;;16.30;94.40;;;;;;5073334;28;19920;-64
2022/11/16 03:34:59;;;;;;;;;;;16.70;95.90;;;;;;5073282;28;19955;-61
2022/11/16 03:37:27;;;;;;;;;;;17.00;95.00;;;;;;5073395;28;19916;-60
2022/11/16 03:39:54;;;;;;;;;;;17.20;94.70;;;;;;5073504;28;20379;-64
2022/11/16 03:42:22;;;;;;;;;;;17.50;93.70;;;;;;5072545;28;19934;-62
2022/11/16 03:44:49;;;;;;;;;;;17.20;91.90;;;;;;5071752;28;19918;-63
2022/11/16 03:47:16;;;;;;;;;;;17.30;91.90;;;;;;5073248;28;20282;-62
2022/11/16 03:49:46;;;;;;;;;;;17.00;91.40;;;;;;5073238;28;19908;-65
2022/11/16 03:52:16;;;;;;;;;;;17.00;91.80;;;;;;5073353;28;19920;-66
2022/11/16 03:54:43;;;;;;;;;;;17.30;91.80;;;;;;5072676;28;19916;-71
2022/11/16 03:57:17;;;;;;;;;;;17.40;91.50;;;;;;5072130;28;19916;-62
2022/11/16 03:59:44;;;;;;;;;;;17.30;91.90;;;;;;5073418;28;19909;-66
2022/11/16 04:02:11;;;;;;;;;;;17.30;92.00;;;;;;5073320;28;19908;-66
2022/11/16 04:24:11;;;;;;;;;;;17.40;92.10;;;;;;5053416;28;19962;-62
2022/11/16 04:29:24;;;;;;;;;;;17.70;90.30;;;;;;5053115;28;19935;-61
2022/11/16 04:40:05;;;;;;;;;;;17.80;90.50;;;;;;5053222;28;19919;-63
2022/11/16 04:42:32;;;;;;;;;;;17.80;90.30;;;;;;5069185;28;19916;-61
2022/11/16 04:47:43;;;;;;;;;;;17.90;90.30;;;;;;5073020;28;20396;-61
2022/11/16 04:50:10;;;;;;;;;;;17.70;90.20;;;;;;5072825;28;19943;-62
2022/11/16 04:52:37;;;;;;;;;;;17.90;91.30;;;;;;5072704;28;19940;-61
2022/11/16 04:55:04;;;;;;;;;;;17.90;90.10;;;;;;5072282;28;19927;-61
2022/11/16 04:57:30;;;;;;;;;;;17.90;90.00;;;;;;5071829;28;19936;-63
2022/11/16 04:59:57;;;;;;;;;;;17.80;88.40;;;;;;5072787;28;19908;-64
2022/11/16 05:02:24;;;;;;;;;;;16.80;98.80;;;;;;5065794;28;19919;-62
2022/11/16 05:04:50;;;;;;;;;;;16.10;99.90;;;;;;5052273;28;19909;-60
2022/11/16 05:07:17;;;;;;;;;;;15.90;99.90;;;;;;5054894;28;19909;-68
2022/11/16 05:09:45;;;;;;;;;;;15.70;99.90;;;;;;5056407;28;19954;-70
2022/11/16 05:12:16;;;;;;;;;;;15.10;99.90;;;;;;5073859;28;19950;-69
2022/11/16 05:14:43;;;;;;;;;;;15.00;99.90;;;;;;5075305;28;20278;-68
2022/11/16 05:17:10;;;;;;;;;;;15.00;99.90;;;;;;5075853;28;20335;-70
2022/11/16 05:22:21;;;;;;;;;;;15.00;99.90;;;;;;5076422;28;19915;-70
2022/11/16 05:24:48;;;;;;;;;;;14.80;99.90;;;;;;5074841;28;19908;-70
2022/11/16 05:27:15;;;;;;;;;;;14.80;99.90;;;;;;5075417;28;20290;-68
2022/11/16 05:29:45;;;;;;;;;;;14.80;99.90;;;;;;5074466;28;20458;-70
2022/11/16 05:32:12;;;;;;;;;;;14.70;99.90;;;;;;5075605;28;20003;-67
2022/11/16 05:34:39;;;;;;;;;;;14.60;99.90;;;;;;5075665;28;20009;-70
2022/11/16 05:37:05;;;;;;;;;;;14.50;99.90;;;;;;5075460;28;19939;-69
2022/11/16 05:39:32;;;;;;;;;;;14.60;99.90;;;;;;5074178;28;19915;-69
2022/11/16 05:41:59;;;;;;;;;;;14.60;99.90;;;;;;5075045;28;19915;-70
2022/11/16 05:44:25;;;;;;;;;;;14.60;99.90;;;;;;5075769;28;19912;-71
2022/11/16 05:46:54;;;;;;;;;;;14.60;99.90;;;;;;5074040;28;20279;-70
2022/11/16 05:49:20;;;;;;;;;;;14.40;99.90;;;;;;5075575;28;19908;-70
2022/11/16 05:51:47;;;;;;;;;;;14.30;99.90;;;;;;5072777;28;20023;-70
2022/11/16 05:54:16;;;;;;;;;;;14.40;99.90;;;;;;5072863;28;19916;-69
2022/11/16 05:56:42;;;;;;;;;;;14.40;99.90;;;;;;5072843;28;20440;-68
2022/11/16 05:59:11;;;;;;;;;;;14.30;99.90;;;;;;5072992;28;19926;-70
2022/11/16 06:01:38;;;;;;;;;;;14.40;99.90;;;;;;5073083;28;20387;-70
2022/11/16 06:04:05;;;;;;;;;;;14.50;99.90;;;;;;5072826;28;20003;-71
2022/11/16 06:06:32;;;;;;;;;;;14.50;99.90;;;;;;5073138;28;19913;-68
2022/11/16 06:08:58;;;;;;;;;;;14.60;99.90;;;;;;5071966;28;19908;-71
2022/11/16 06:11:25;;;;;;;;;;;14.60;99.90;;;;;;5072399;28;19921;-73
2022/11/16 06:13:52;;;;;;;;;;;14.60;99.90;;;;;;5072987;28;19935;-65
2022/11/16 06:16:19;;;;;;;;;;;14.70;99.90;;;;;;5071501;28;19958;-67
2022/11/16 06:18:46;;;;;;;;;;;14.70;99.90;;;;;;5071693;28;19924;-67
2022/11/16 06:21:14;;;;;;;;;;;14.70;99.90;;;;;;5072775;28;19916;-68
2022/11/16 06:23:41;;;;;;;;;;;14.50;99.90;;;;;;5071656;28;20283;-68
2022/11/16 06:26:08;;;;;;;;;;;14.20;99.90;;;;;;5071433;28;20384;-70
2022/11/16 06:28:36;;;;;;;;;;;14.10;99.90;;;;;;5072546;28;19912;-70
2022/11/16 06:31:02;;;;;;;;;;;14.20;99.90;;;;;;5072006;28;19915;-70
2022/11/16 06:33:29;;;;;;;;;;;14.10;99.90;;;;;;5072537;28;19912;-70
2022/11/16 06:35:56;;;;;;;;;;;14.10;99.90;;;;;;5072626;28;20367;-69
2022/11/16 06:38:22;;;;;;;;;;;14.10;99.90;;;;;;5072509;28;20279;-64
2022/11/16 06:40:50;;;;;;;;;;;14.20;99.90;;;;;;5071562;28;19924;-70
2022/11/16 06:43:16;;;;;;;;;;;14.30;99.90;;;;;;5071961;28;19908;-67
2022/11/16 06:45:43;;;;;;;;;;;14.30;99.90;;;;;;5072276;28;19956;-70
2022/11/16 06:48:10;;;;;;;;;;;14.30;99.90;;;;;;5072187;28;20025;-66
2022/11/16 06:50:36;;;;;;;;;;;14.40;99.90;;;;;;5072154;28;19913;-70
2022/11/16 06:53:03;;;;;;;;;;;14.40;99.90;;;;;;5071950;28;20480;-68
2022/11/16 06:55:30;;;;;;;;;;;14.40;99.90;;;;;;5071029;28;19921;-67
2022/11/16 06:57:56;;;;;;;;;;;14.50;99.90;;;;;;5070972;28;19920;-68
2022/11/16 07:00:23;;;;;;;;;;;14.60;99.90;;;;;;5071820;28;19909;-68
2022/11/16 07:02:50;;;;;;;;;;;14.70;99.90;;;;;;5071555;28;19961;-70
2022/11/16 07:05:16;;;;;;;;;;;14.70;99.90;;;;;;5071846;28;20435;-69
2022/11/16 07:07:43;;;;;;;;;;;14.80;99.90;;;;;;5066902;28;19920;-71
2022/11/16 07:10:10;;;;;;;;;;;14.80;99.90;;;;;;5064324;28;20343;-71
2022/11/16 07:12:37;;;;;;;;;;;14.80;99.90;;;;;;5065330;28;19981;-70
2022/11/16 07:15:05;;;;;;;;;;;14.80;99.90;;;;;;5065285;28;19917;-70
2022/11/16 07:17:33;;;;;;;;;;;14.90;99.90;;;;;;5065133;28;20003;-71
2022/11/16 07:19:59;;;;;;;;;;;15.00;99.90;;;;;;5065058;28;20538;-68
2022/11/16 07:22:26;;;;;;;;;;;15.20;99.90;;;;;;5064677;28;19955;-70
2022/11/16 07:24:53;;;;;;;;;;;15.30;99.90;;;;;;5063938;28;19923;-73
2022/11/16 07:27:19;;;;;;;;;;;15.20;99.90;;;;;;5064462;28;19990;-71
2022/11/16 07:29:46;;;;;;;;;;;15.20;99.90;;;;;;5064360;28;19919;-72
2022/11/16 07:32:13;;;;;;;;;;;15.20;99.90;;;;;;5064438;28;19928;-71
2022/11/16 07:34:39;;;;;;;;;;;15.30;99.90;;;;;;5064850;28;19916;-69
2022/11/16 07:37:06;;;;;;;;;;;15.20;99.90;;;;;;5063821;28;19913;-71
2022/11/16 07:39:33;;;;;;;;;;;15.30;99.90;;;;;;5064228;28;19917;-71
2022/11/16 07:41:59;;;;;;;;;;;15.20;99.90;;;;;;5064865;28;19912;-71
2022/11/16 07:44:26;;;;;;;;;;;15.10;99.90;;;;;;5064554;28;19912;-72
2022/11/16 07:46:52;;;;;;;;;;;15.10;99.90;;;;;;5064621;28;19954;-71
2022/11/16 07:49:20;;;;;;;;;;;15.10;99.90;;;;;;5064376;28;19912;-71
2022/11/16 07:51:47;;;;;;;;;;;15.00;99.90;;;;;;5064550;28;19916;-70
2022/11/16 07:54:14;;;;;;;;;;;14.90;99.90;;;;;;5064075;28;20022;-71
2022/11/16 07:56:41;;;;;;;;;;;14.90;99.90;;;;;;5064684;28;19985;-71
2022/11/16 07:59:08;;;;;;;;;;;14.90;99.90;;;;;;5064728;28;19912;-71
2022/11/16 08:01:35;;;;;;;;;;;14.80;99.90;;;;;;5064162;28;19969;-70
2022/11/16 08:04:01;;;;;;;;;;;14.90;99.90;;;;;;5064539;28;19919;-71
2022/11/16 08:06:29;;;;;;;;;;;14.80;99.90;;;;;;5064701;28;19912;-70
2022/11/16 08:08:56;;;;;;;;;;;14.70;99.90;;;;;;5063670;28;19981;-71
2022/11/16 08:11:24;;;;;;;;;;;14.70;99.90;;;;;;5064594;28;19925;-71
2022/11/16 08:13:51;;;;;;;;;;;14.70;99.90;;;;;;5070562;28;19912;-70
2022/11/16 08:16:18;;;;;;;;;;;14.80;99.90;;;;;;5072142;28;20298;-71
2022/11/16 08:18:45;;;;;;;;;;;14.70;99.90;;;;;;5073069;28;19916;-67
2022/11/16 08:21:14;;;;;;;;;;;14.80;99.90;;;;;;5073077;28;20344;-70
2022/11/16 08:23:40;;;;;;;;;;;14.70;99.90;;;;;;5073131;28;19909;-70
2022/11/16 08:26:08;;;;;;;;;;;14.70;99.90;;;;;;5073072;28;19908;-67
2022/11/16 08:28:35;;;;;;;;;;;14.70;99.90;;;;;;5072954;28;19913;-68
2022/11/16 08:31:12;;;;;;;;;;;14.60;99.90;;;;;;5071829;28;19909;-61
2022/11/16 08:33:39;;;;;;;;;;;14.60;99.90;;;;;;5072182;28;19917;-63
2022/11/16 08:36:06;;;;;;;;;;;14.60;99.90;;;;;;5072887;28;20357;-68
2022/11/16 08:38:33;;;;;;;;;;;14.60;99.90;;;;;;5072891;28;19909;-63
2022/11/16 08:41:00;;;;;;;;;;;14.60;99.90;;;;;;5074577;28;19909;-66
2022/11/16 08:43:28;;;;;;;;;;;14.50;99.90;;;;;;5076711;28;20240;-62
2022/11/16 08:45:58;;;;;;;;;;;14.50;99.90;;;;;;5075526;28;20359;-71
2022/11/16 08:48:25;;;;;;;;;;;14.50;99.90;;;;;;5076528;28;19968;-64
2022/11/16 08:50:52;;;;;;;;;;;14.50;99.90;;;;;;5076485;28;19909;-70
2022/11/16 08:53:19;;;;;;;;;;;14.50;99.90;;;;;;5076364;28;20412;-71
2022/11/16 08:55:45;;;;;;;;;;;14.50;99.90;;;;;;5076361;28;19924;-70
2022/11/16 08:58:12;;;;;;;;;;;14.60;99.90;;;;;;5076356;28;19909;-70
2022/11/16 09:00:39;;;;;;;;;;;14.60;99.90;;;;;;5075523;28;19913;-68
2022/11/16 09:03:05;;;;;;;;;;;14.50;99.90;;;;;;5075358;28;19974;-62
2022/11/16 09:05:32;;;;;;;;;;;14.50;99.90;;;;;;5076206;28;19908;-70
2022/11/16 09:07:59;;;;;;;;;;;14.50;99.90;;;;;;5076018;28;19909;-69
2022/11/16 09:10:25;;;;;;;;;;;14.40;99.90;;;;;;5076091;28;19913;-70
2022/11/16 09:12:52;;;;;;;;;;;14.40;99.90;;;;;;5075896;28;20371;-66
2022/11/16 09:15:19;;;;;;;;;;;14.40;99.90;;;;;;5075236;28;19940;-70
2022/11/16 09:17:46;;;;;;;;;;;14.40;99.90;;;;;;5075769;28;19909;-66
2022/11/16 09:20:13;;;;;;;;;;;14.40;99.90;;;;;;5075689;28;19965;-67
2022/11/16 09:22:39;;;;;;;;;;;14.40;99.90;;;;;;5075721;28;20321;-69
2022/11/16 09:25:07;;;;;;;;;;;14.50;99.90;;;;;;5075386;28;19979;-69
2022/11/16 09:27:33;;;;;;;;;;;14.50;99.90;;;;;;5075790;28;19962;-68
2022/11/16 09:30:00;;;;;;;;;;;14.50;99.90;;;;;;5075282;28;19919;-70
2022/11/16 09:32:27;;;;;;;;;;;14.40;99.90;;;;;;5075072;28;19921;-67
2022/11/16 09:34:53;;;;;;;;;;;14.40;99.90;;;;;;5075548;28;19999;-71
2022/11/16 09:37:20;;;;;;;;;;;14.30;99.90;;;;;;5075759;28;19908;-71
2022/11/16 09:39:46;;;;;;;;;;;14.30;99.90;;;;;;5075677;28;20003;-70
2022/11/16 09:42:25;;;;;;;;;;;14.30;99.90;;;;;;5075694;28;19920;-71
2022/11/16 09:44:57;;;;;;;;;;;14.30;99.90;;;;;;5074462;28;20412;-70
2022/11/16 09:47:32;;;;;;;;;;;14.30;99.90;;;;;;5075555;28;20389;-69
2022/11/16 09:50:00;;;;;;;;;;;14.30;99.90;;;;;;5075482;28;19909;-70
2022/11/16 09:52:32;;;;;;;;;;;14.30;99.90;;;;;;5074613;28;19916;-70
2022/11/16 09:55:02;;;;;;;;;;;14.30;99.90;;;;;;5075152;28;19926;-71
2022/11/16 09:57:31;;;;;;;;;;;14.30;99.90;;;;;;5075245;28;20252;-70
2022/11/16 10:00:01;;;;;;;;;;;14.30;99.90;;;;;;5074454;28;19913;-71
2022/11/16 10:02:28;;;;;;;;;;;14.30;99.90;;;;;;5075136;28;19977;-71
2022/11/16 10:04:57;;;;;;;;;;;14.30;99.90;;;;;;5075012;28;19908;-69
2022/11/16 10:07:24;;;;;;;;;;;14.30;99.90;;;;;;5075240;28;19909;-69
2022/11/16 10:09:51;;;;;;;;;;;14.20;99.90;;;;;;5075238;28;19912;-71
2022/11/16 10:12:20;;;;;;;;;;;14.20;99.90;;;;;;5066240;28;19920;-71
2022/11/16 10:14:50;;;;;;;;;;;14.30;99.90;;;;;;5065333;28;19920;-68
2022/11/16 10:17:24;;;;;;;;;;;14.30;99.90;;;;;;5066365;28;19916;-67
2022/11/16 10:19:56;;;;;;;;;;;14.30;99.90;;;;;;5066334;28;19912;-70
2022/11/16 10:22:35;;;;;;;;;;;14.30;99.90;;;;;;5066251;28;19913;-71
2022/11/16 10:25:11;;;;;;;;;;;14.20;99.90;;;;;;5065776;28;20708;-70
2022/11/16 10:27:41;;;;;;;;;;;14.30;99.90;;;;;;5066174;28;20299;-70
2022/11/16 10:30:09;;;;;;;;;;;14.30;99.90;;;;;;5065561;28;19912;-70
2022/11/16 10:32:47;;;;;;;;;;;14.40;99.90;;;;;;5065948;28;20298;-71
2022/11/16 10:35:38;;;;;;;;;;;14.40;99.90;;;;;;5066016;28;19919;-71
2022/11/16 10:38:16;;;;;;;;;;;14.40;99.90;;;;;;5055791;28;20624;-72
2022/11/16 10:40:45;;;;;;;;;;;14.40;99.90;;;;;;5065742;28;19920;-71
2022/11/16 10:43:20;;;;;;;;;;;14.40;99.90;;;;;;5065313;28;19919;-71
2022/11/16 10:45:59;;;;;;;;;;;14.30;99.90;;;;;;5064897;28;19916;-72
2022/11/16 10:48:36;;;;;;;;;;;14.30;99.90;;;;;;5065729;28;19978;-68
2022/11/16 10:51:03;;;;;;;;;;;14.30;99.90;;;;;;5065013;28;20004;-67
2022/11/16 10:53:37;;;;;;;;;;;14.30;99.90;;;;;;5065745;28;20052;-67
2022/11/16 10:56:20;;;;;;;;;;;14.30;99.90;;;;;;5065619;28;19928;-68
2022/11/16 10:59:00;;;;;;;;;;;14.30;99.90;;;;;;5064664;28;20438;-71
2022/11/16 11:01:28;;;;;;;;;;;14.40;99.90;;;;;;5065257;28;20011;-69
2022/11/16 11:03:55;;;;;;;;;;;14.40;99.90;;;;;;5065247;28;19917;-71
2022/11/16 11:06:24;;;;;;;;;;;14.40;99.90;;;;;;5065445;28;20466;-71
2022/11/16 11:08:51;;;;;;;;;;;14.40;99.90;;;;;;5065347;28;19912;-71
2022/11/16 11:14:15;;;;;;;;;;;14.30;99.90;;;;;;5065181;28;19950;-70
2022/11/16 11:16:42;;;;;;;;;;;14.30;99.90;;;;;;5064244;28;19916;-68
2022/11/16 11:19:18;;;;;;;;;;;14.30;99.90;;;;;;5063731;28;19916;-63
2022/11/16 11:21:46;;;;;;;;;;;14.30;99.90;;;;;;5065228;28;19981;-64
2022/11/16 11:24:15;;;;;;;;;;;14.30;99.90;;;;;;5065147;28;19913;-68
2022/11/16 11:26:51;;;;;;;;;;;14.20;99.90;;;;;;5065102;28;20285;-66
2022/11/16 11:29:43;;;;;;;;;;;14.30;99.90;;;;;;5064952;28;19912;-62
2022/11/16 11:32:14;;;;;;;;;;;14.20;99.90;;;;;;5061273;28;19927;-69
2022/11/16 11:34:42;;;;;;;;;;;14.20;99.90;;;;;;5064171;28;19924;-71
2022/11/16 11:37:19;;;;;;;;;;;14.20;99.90;;;;;;5064998;28;19912;-71
2022/11/16 11:39:46;;;;;;;;;;;14.20;99.90;;;;;;5062789;28;20975;-69
2022/11/16 11:42:13;;;;;;;;;;;14.20;99.90;;;;;;5064524;28;19916;-71
2022/11/16 11:44:48;;;;;;;;;;;14.20;99.90;;;;;;5065027;28;20398;-65
2022/11/16 11:47:15;;;;;;;;;;;14.30;99.90;;;;;;5064754;28;19917;-68
2022/11/16 11:49:48;;;;;;;;;;;14.20;99.90;;;;;;5064839;28;19936;-71
2022/11/16 11:52:25;;;;;;;;;;;14.20;99.90;;;;;;5064722;28;19929;-67
2022/11/16 11:54:53;;;;;;;;;;;14.20;99.90;;;;;;5063810;28;19923;-68
2022/11/16 11:57:22;;;;;;;;;;;14.20;99.90;;;;;;5063709;28;20047;-65
2022/11/16 11:59:51;;;;;;;;;;;14.20;99.90;;;;;;5064506;28;19913;-64
2022/11/16 12:02:36;;;;;;;;;;;14.20;99.90;;;;;;5064786;28;20281;-67
2022/11/16 12:05:11;;;;;;;;;;;14.20;99.90;;;;;;5064374;28;19912;-67
2022/11/16 12:08:01;;;;;;;;;;;14.30;99.90;;;;;;5064970;28;19998;-69
2022/11/16 12:10:30;;;;;;;;;;;14.30;99.90;;;;;;5063241;28;19916;-67
2022/11/16 12:13:03;;;;;;;;;;;14.30;99.90;;;;;;5066637;28;20260;-65
2022/11/16 12:15:46;;;;;;;;;;;14.30;99.90;;;;;;5072712;28;19909;-61
2022/11/16 12:18:12;;;;;;;;;;;14.20;99.90;;;;;;5073180;28;20413;-65
2022/11/16 12:20:54;;;;;;;;;;;14.00;99.90;;;;;;5073194;28;19934;-63
2022/11/16 12:23:21;;;;;;;;;;;14.00;99.90;;;;;;5073155;28;19908;-63
2022/11/16 12:25:54;;;;;;;;;;;13.90;99.90;;;;;;5071222;28;20343;-66
2022/11/16 12:28:29;;;;;;;;;;;13.90;99.90;;;;;;5073332;28;19909;-64
2022/11/16 12:31:15;;;;;;;;;;;13.90;99.90;;;;;;5072827;28;20395;-65
2022/11/16 12:33:44;;;;;;;;;;;13.80;99.90;;;;;;5072859;28;19923;-66
2022/11/16 12:36:32;;;;;;;;;;;13.80;99.90;;;;;;5073061;28;19909;-64
2022/11/16 12:39:14;;;;;;;;;;;13.80;99.90;;;;;;5072116;28;20007;-71
2022/11/16 12:41:47;;;;;;;;;;;13.80;99.90;;;;;;5073111;28;19908;-64
2022/11/16 12:44:21;;;;;;;;;;;13.70;99.90;;;;;;5073042;28;19999;-69
2022/11/16 12:46:57;;;;;;;;;;;13.70;99.90;;;;;;5072640;28;19955;-67
2022/11/16 12:49:42;;;;;;;;;;;13.60;99.90;;;;;;5072931;28;20328;-66
2022/11/16 12:52:11;;;;;;;;;;;13.60;99.90;;;;;;5072802;28;20007;-69
2022/11/16 12:54:52;;;;;;;;;;;13.60;99.90;;;;;;5069718;28;19960;-69
2022/11/16 12:57:28;;;;;;;;;;;13.60;99.90;;;;;;5072317;28;19916;-70
2022/11/16 13:00:09;;;;;;;;;;;13.50;99.90;;;;;;5072730;28;20264;-69
2022/11/16 13:02:53;;;;;;;;;;;13.40;99.90;;;;;;5072786;28;20382;-70
2022/11/16 13:05:22;;;;;;;;;;;13.40;99.90;;;;;;5072777;28;20278;-67
2022/11/16 13:08:02;;;;;;;;;;;13.40;99.90;;;;;;5073039;28;19916;-71
2022/11/16 13:10:30;;;;;;;;;;;13.40;99.90;;;;;;5072700;28;20384;-67
2022/11/16 13:13:00;;;;;;;;;;;13.40;99.90;;;;;;5072541;28;20003;-66
2022/11/16 13:15:30;;;;;;;;;;;13.40;99.90;;;;;;5072609;28;19908;-68
2022/11/16 13:17:59;;;;;;;;;;;13.40;99.90;;;;;;5072617;28;19909;-70
2022/11/16 13:20:44;;;;;;;;;;;13.40;99.90;;;;;;5072591;28;19960;-65
2022/11/16 13:23:17;;;;;;;;;;;13.40;99.90;;;;;;5071844;28;19920;-70
2022/11/16 13:25:47;;;;;;;;;;;13.30;99.90;;;;;;5071735;28;19954;-70
2022/11/16 13:28:13;;;;;;;;;;;13.30;99.90;;;;;;5074803;28;20302;-70
2022/11/16 13:30:58;;;;;;;;;;;13.40;99.90;;;;;;5075936;28;19909;-70
2022/11/16 13:33:40;;;;;;;;;;;13.30;99.90;;;;;;5075914;28;19999;-67
2022/11/16 13:36:44;;;;;;;;;;;13.20;99.90;;;;;;5076050;28;19978;-70
2022/11/16 13:39:12;;;;;;;;;;;13.30;99.90;;;;;;5048617;28;19919;-69
2022/11/16 13:41:43;;;;;;;;;;;13.30;99.90;;;;;;5075729;28;19954;-70
2022/11/16 13:44:13;;;;;;;;;;;13.20;99.90;;;;;;5075584;28;19969;-69
2022/11/16 13:46:47;;;;;;;;;;;13.20;99.90;;;;;;5075799;28;20313;-70
2022/11/16 13:49:31;;;;;;;;;;;13.30;99.90;;;;;;5075823;28;20355;-71
2022/11/16 13:52:16;;;;;;;;;;;13.40;99.90;;;;;;5075524;28;19927;-67
2022/11/16 13:54:47;;;;;;;;;;;13.30;99.90;;;;;;5075591;28;20287;-70
2022/11/16 13:57:30;;;;;;;;;;;13.30;99.90;;;;;;5074875;28;20347;-66
2022/11/16 14:00:00;;;;;;;;;;;13.30;99.90;;;;;;5075538;28;19919;-70
2022/11/16 14:02:31;;;;;;;;;;;13.30;99.90;;;;;;5075627;28;20003;-70
2022/11/16 14:04:57;;;;;;;;;;;13.30;99.90;;;;;;5075200;28;19909;-70
2022/11/16 14:07:32;;;;;;;;;;;13.30;99.90;;;;;;5074653;28;19920;-71
2022/11/16 14:09:59;;;;;;;;;;;13.40;99.90;;;;;;5075336;28;19908;-70
2022/11/16 14:12:38;;;;;;;;;;;13.30;99.90;;;;;;5075229;28;19974;-70
2022/11/16 14:15:15;;;;;;;;;;;13.30;99.90;;;;;;5074872;28;20398;-70
2022/11/16 14:17:56;;;;;;;;;;;13.20;99.90;;;;;;5075149;28;19960;-69
2022/11/16 14:20:39;;;;;;;;;;;13.30;99.90;;;;;;5075192;28;19908;-69
2022/11/16 14:23:11;;;;;;;;;;;13.20;99.90;;;;;;5074166;28;20359;-71
2022/11/16 14:25:45;;;;;;;;;;;13.20;99.90;;;;;;5075090;28;19944;-71
2022/11/16 14:28:18;;;;;;;;;;;13.20;99.90;;;;;;5074953;28;19909;-69
2022/11/16 14:30:50;;;;;;;;;;;13.20;99.90;;;;;;5074738;28;19919;-70
2022/11/16 14:33:25;;;;;;;;;;;13.10;99.90;;;;;;5074983;28;19923;-70
2022/11/16 14:35:52;;;;;;;;;;;13.00;99.90;;;;;;5074909;28;20321;-70
2022/11/16 14:38:32;;;;;;;;;;;13.00;99.90;;;;;;5073649;28;19958;-71
2022/11/16 14:41:01;;;;;;;;;;;13.00;99.90;;;;;;5074317;28;19909;-71
2022/11/16 14:43:30;;;;;;;;;;;12.90;99.90;;;;;;5074583;28;19909;-70
2022/11/16 14:46:05;;;;;;;;;;;13.00;99.90;;;;;;5074424;28;19909;-71
2022/11/16 14:48:32;;;;;;;;;;;13.10;99.90;;;;;;5074486;28;19948;-71
2022/11/16 14:50:58;;;;;;;;;;;13.00;99.90;;;;;;5074334;28;20385;-71
2022/11/16 14:53:26;;;;;;;;;;;13.00;99.90;;;;;;5073497;28;19920;-71
2022/11/16 14:56:04;;;;;;;;;;;12.90;99.90;;;;;;5074254;28;19928;-71
2022/11/16 14:58:30;;;;;;;;;;;12.90;99.90;;;;;;5074389;28;19909;-71
2022/11/16 15:00:58;;;;;;;;;;;13.00;99.90;;;;;;5073788;28;20268;-71
2022/11/16 15:03:27;;;;;;;;;;;13.00;99.90;;;;;;5074187;28;19912;-70
2022/11/16 15:06:00;;;;;;;;;;;13.00;99.90;;;;;;5073309;28;19909;-71
2022/11/16 15:08:53;;;;;;;;;;;13.10;99.90;;;;;;5073524;28;19920;-71
2022/11/16 15:12:40;;;;;;;;;;;13.10;99.90;;;;;;5070298;28;20347;-71
2022/11/16 15:14:14;;;;;;;;;;;13.00;99.90;;;;;;5073928;28;19912;-71
2022/11/16 15:16:51;;;;;;;;;;;13.00;99.90;;;;;;5074024;28;19909;-71